Terminal Aerodrome Forecast
Issued by NWS Melbourne, FL

Home | Current Version | Previous Version | Text Only | Print | Product List | Glossary On
Versions: 1 2 3 4 5 6 7 8 9 10 11 12 13 14 15 16 17 18 19 20 21 22 23
201
FTUS42 KMLB 261457 AAA
TAFMCO
TAF AMD
KMCO 261457Z 2615/2712 14007KT P6SM FEW011 SCT030 SCT250
     FM261900 14008KT P6SM VCTS SCT040CB BKN080
     FM270000 14005KT P6SM SCT100=

USA.gov is the U.S. government's official web portal to all federal, state and local government web resources and services.